X  Close Metar Aviation Weather Data     KPCW Carl R Keller Field
Temperature
31°C Temperature
20°C Dewpoint
52% Humidity



Wind
10 MPH
16 KM/H
4 M/S
9 KTS



220°
SW
Current Conditions

Clear Clear
Pressure 1015.92 (hPa) - 30 (inHg)
Visibility 10 (mile) - 16.1 (km)
Airport
Airport-code KPCW

Location: Carl R Keller Field
Distance: 8 (mi)

Metar:
KPCW 221515Z AUTO 22009KT 10SM CLR 31/20 A3000 RMK AO2

Time: 22-06-2024 11:15 am EDT